Weather at Renmark Airport

Public forecast

Using degrees Celsius for public forecast. Weather courtesy of forecast.io.

Closest aviation weather report (METAR) to Renmark Airport

Closest report is Mildura Airport, 70.1 nm (129.9 km) E. Retrieved 2021/01/26 00:00 UTC (46 minutes ago):

YMIA 260000Z AUTO 19008KT 9999 // BKN022 OVC028 23/18 Q1004

Closest aviation forecast (TAF) to Renmark Airport

Closest forecast is Adelaide International Airport, 115.1 nm (213.1 km) WSW. Retrieved 2021-01-26 03:36 UTC (0 seconds ago):

TAF YPAD 250217Z 2503/2606 20010KT 9999 -RA NSC FM250600 15008KT 9999 -RA FEW020 BKN045 FM251300 18012KT 9999 -SHRA FEW015 BKN020 FM260000 22014KT 9999 NSW SCT030 INTER 2503/2506 6000 SHRA NSC TEMPO 2506/2510 5000 RA BKN020 PROB30 INTER 2503/2509 VRB20G35KT 2000 TSRA SCT020 SCT060CB